ADDS METAR Data INFO
IDs: Format: Raw Decoded Include TAF

Data at: 1838 UTC 17 Oct 2017

KMKJ 171815Z AUTO 23003KT 10SM CLR 15/00 A3035 RMK AO2 T01491004
KMKJ 171755Z AUTO 00000KT 10SM CLR 15/00 A3036 RMK AO2 T01490000 10150 20012
KMKJ 171735Z AUTO 00000KT 10SM CLR 14/00 A3037 RMK AO2 T01421002
KMKJ 171715Z AUTO 00000KT 10SM CLR 14/00 A3038 RMK AO2 T01430002
KMKJ 171655Z AUTO 12005KT 10SM CLR 14/00 A3039 RMK AO2 T01370004
KMKJ 171635Z AUTO 06004KT 10SM CLR 14/00 A3039 RMK AO2 T01360004
KMKJ 171615Z AUTO 09004KT 10SM CLR 13/00 A3040 RMK AO2 T01290000
KMKJ 171555Z AUTO 09005KT 10SM CLR 13/00 A3041 RMK AO2 T01251004
KMKJ 171535Z AUTO 10004KT 10SM CLR 12/00 A3041 RMK AO2 T01221001
KMKJ 171515Z AUTO 05007KT 10SM CLR 11/00 A3041 RMK AO2 T01141002
KMKJ 171455Z AUTO 07004KT 10SM CLR 11/00 A3042 RMK AO2 T01120000
KMKJ 171435Z AUTO 09004KT 10SM CLR 11/01 A3041 RMK AO2 T01090012
KMKJ 171415Z AUTO 09003KT 10SM CLR 10/02 A3041 RMK AO2 T01000020
KMKJ 171355Z AUTO 13003KT 10SM CLR 09/03 A3041 RMK AO2 T00940025
KMKJ 171335Z AUTO 00000KT 10SM CLR 08/04 A3041 RMK AO2 T00750036
KMKJ 171315Z AUTO 00000KT 10SM CLR 05/03 A3041 RMK AO2 T00530028
KMKJ 171255Z AUTO 00000KT 10SM CLR 04/02 A3040 RMK AO2 T00350017
KMKJ 171235Z AUTO 00000KT 10SM CLR 02/01 A3039 RMK AO2 T00230009
KMKJ 171215Z AUTO 00000KT 10SM CLR 02/00 A3039 RMK AO2 T00150000
KMKJ 171155Z AUTO 00000KT 10SM CLR 01/00 A3039 RMK AO2 T00130000 10030 20009
KMKJ 171135Z AUTO 00000KT 10SM CLR 01/00 A3037 RMK AO2 T00111001
KMKJ 171115Z AUTO 00000KT 10SM CLR 01/00 A3037 RMK AO2 T00110000
KMKJ 171055Z AUTO 00000KT 10SM CLR 01/00 A3036 RMK AO2 T00130000
KMKJ 171035Z AUTO 00000KT 10SM CLR 01/00 A3036 RMK AO2 T00111001
KMKJ 171015Z AUTO 00000KT 10SM CLR 01/00 A3036 RMK AO2 T00120000
KMKJ 170955Z AUTO 00000KT 10SM CLR 01/00 A3035 RMK AO2 T00130000
KMKJ 170935Z AUTO 00000KT 10SM CLR 01/00 A3035 RMK AO2 T00101001
KMKJ 170915Z AUTO 00000KT 10SM CLR 01/00 A3035 RMK AO2 T00110000
KMKJ 170855Z AUTO 00000KT 10SM CLR 02/00 A3034 RMK AO2 T00150001
KMKJ 170835Z AUTO 00000KT 10SM CLR 02/01 A3033 RMK AO2 T00200005
KMKJ 170815Z AUTO 00000KT 10SM CLR 02/00 A3033 RMK AO2 T00180004
KMKJ 170755Z AUTO 00000KT 10SM CLR 02/01 A3032 RMK AO2 T00200006
KMKJ 170735Z AUTO 00000KT 10SM CLR 02/01 A3032 RMK AO2 T00190005
KMKJ 170715Z AUTO 00000KT 10SM CLR 02/01 A3033 RMK AO2 T00230009
KMKJ 170655Z AUTO 00000KT 10SM CLR 02/01 A3032 RMK AO2 T00230008
KMKJ 170635Z AUTO 00000KT 10SM CLR 02/01 A3033 RMK AO2 T00220008
KMKJ 170615Z AUTO 00000KT 10SM CLR 03/01 A3032 RMK AO2 T00290014
KMKJ 170555Z AUTO 00000KT 10SM CLR 03/01 A3033 RMK AO2 T00290014 10093 20029
KMKJ 170535Z AUTO 26003KT 10SM CLR 03/02 A3033 RMK AO2 T00310015
KMKJ 170515Z AUTO 00000KT 10SM CLR 03/01 A3033 RMK AO2 T00300013
KMKJ 170455Z AUTO 00000KT 10SM CLR 03/02 A3034 RMK AO2 T00330017 401700031
KMKJ 170435Z AUTO 00000KT 10SM CLR 04/02 A3033 RMK AO2 T00400018
KMKJ 170415Z AUTO 00000KT 10SM CLR 04/02 A3034 RMK AO2 T00380018
KMKJ 170355Z AUTO 00000KT 10SM CLR 04/02 A3034 RMK AO2 T00410020
KMKJ 170335Z AUTO 00000KT 10SM CLR 04/02 A3034 RMK AO2 T00420020
KMKJ 170315Z AUTO 00000KT 10SM CLR 04/02 A3034 RMK AO2 T00430021
KMKJ 170255Z AUTO 00000KT 10SM CLR 05/02 A3033 RMK AO2 T00480021
KMKJ 170235Z AUTO 00000KT 10SM CLR 06/02 A3033 RMK AO2 T00560020
KMKJ 170215Z AUTO 00000KT 10SM CLR 06/02 A3033 RMK AO2 T00580019
KMKJ 170155Z AUTO 00000KT 10SM CLR 06/02 A3031 RMK AO2 T00610016
KMKJ 170135Z AUTO 00000KT 10SM CLR 07/01 A3031 RMK AO2 T00730014
KMKJ 170115Z AUTO 00000KT 10SM CLR 07/02 A3030 RMK AO2 T00700017
KMKJ 170055Z AUTO 23003KT 10SM CLR 07/02 A3029 RMK AO2 T00740015
KMKJ 170035Z AUTO 34004KT 10SM CLR 09/00 A3029 RMK AO2 T00930002
KMKJ 170015Z AUTO 00000KT 10SM SCT040 09/01 A3030 RMK AO2 T00870011
KMKJ 162355Z AUTO 00000KT 10SM SCT040 09/01 A3029 RMK AO2 T00890011 10134 20089
KMKJ 162335Z AUTO 00000KT 10SM CLR 10/00 A3028 RMK AO2 T01010002
KMKJ 162315Z AUTO 00000KT 10SM CLR 10/01 A3027 RMK AO2 T01030006
KMKJ 162255Z AUTO 33004KT 10SM SCT042 11/00 A3026 RMK AO2 T01050004
KMKJ 162235Z AUTO 30006KT 10SM SCT044 11/00 A3025 RMK AO2 T01110001
KMKJ 162215Z AUTO 31008KT 10SM CLR 12/00 A3024 RMK AO2 T01150000
KMKJ 162155Z AUTO 32007KT 10SM CLR 12/00 A3023 RMK AO2 T01151004
KMKJ 162135Z AUTO 35006KT 10SM SCT045 12/00 A3023 RMK AO2 T01160001
KMKJ 162115Z AUTO 34007KT 10SM BKN045 12/01 A3023 RMK AO2 T01180007
KMKJ 162055Z AUTO 32008G17KT 10SM SCT045 12/00 A3023 RMK AO2 T01160004
KMKJ 162035Z AUTO 33012G18KT 310V020 10SM SCT043 12/00 A3023 RMK AO2 T01180003
KMKJ 162015Z AUTO 28009G20KT 260V340 10SM SCT041 13/00 A3023 RMK AO2 T01250002
KMKJ 161955Z AUTO 35012G19KT 10SM BKN039 13/00 A3023 RMK AO2 T01260002
KMKJ 161935Z AUTO 32007KT 10SM BKN037 13/02 A3023 RMK AO2 T01250016
KMKJ 161915Z AUTO 33012G17KT 10SM OVC035 12/01 A3023 RMK AO2 T01220014
KMKJ 161855Z AUTO 30013G18KT 10SM OVC035 13/02 A3023 RMK AO2 T01280024
KMKJ 161835Z AUTO 29013G20KT 10SM OVC035 12/03 A3023 RMK AO2 T01210026
KMKJ 161815Z AUTO 31012G18KT 10SM OVC031 12/03 A3023 RMK AO2 T01150030
KMKJ 161755Z AUTO 31011G19KT 10SM BKN031 OVC035 11/03 A3024 RMK AO2 T01130026 10116 20091
KMKJ 161735Z AUTO 31012G18KT 10SM OVC029 11/03 A3024 RMK AO2 T01110030
KMKJ 161715Z AUTO 29007G16KT 10SM BKN029 OVC035 11/03 A3025 RMK AO2 T01070030
KMKJ 161655Z AUTO 33008G15KT 300V360 10SM OVC027 11/03 A3025 RMK AO2 T01050033
KMKJ 161635Z AUTO 28009G19KT 10SM OVC029 11/03 A3025 RMK AO2 T01060032
KMKJ 161615Z AUTO 32013G17KT 10SM OVC026 11/03 A3024 RMK AO2 T01070034
KMKJ 161555Z AUTO 31008G19KT 280V340 10SM OVC024 10/04 A3024 RMK AO2 T01030039
KMKJ 161535Z AUTO 32006KT 10SM OVC024 10/04 A3024 RMK AO2 T01010039
KMKJ 161515Z AUTO 30008G15KT 270V340 10SM OVC024 10/03 A3024 RMK AO2 T01000034
KMKJ 161455Z AUTO 29008G15KT 10SM OVC022 10/04 A3024 RMK AO2 T00960037
KMKJ 161435Z AUTO 30003KT 10SM BKN022 OVC026 09/04 A3024 RMK AO2 T00940038
KMKJ 161415Z AUTO 31005G14KT 10SM OVC022 10/04 A3023 RMK AO2 T00950037
KMKJ 161355Z AUTO 30009G15KT 10SM OVC022 10/04 A3023 RMK AO2 T00950037
KMKJ 161335Z AUTO 30007G15KT 10SM OVC024 10/04 A3022 RMK AO2 T01000036
KMKJ 161315Z AUTO 27008G16KT 250V330 10SM BKN024 10/04 A3021 RMK AO2 T01000035
KMKJ 161255Z AUTO 31008KT 10SM BKN022 09/03 A3021 RMK AO2 T00910032
KMKJ 161235Z AUTO 31008G21KT 10SM OVC022 09/04 A3020 RMK AO2 T00930041
KMKJ 161215Z AUTO 30012G16KT 10SM OVC022 09/05 A3018 RMK AO2 T00940045
KMKJ 161155Z AUTO 31010G18KT 10SM BKN023 OVC028 09/05 A3017 RMK AO2 60002 70008 T00930045 10150 20093
KMKJ 161135Z AUTO 31011G16KT 10SM SCT018 OVC028 10/05 A3016 RMK AO2 T00950054
KMKJ 161115Z AUTO 31009G14KT 270V340 10SM BKN015 OVC025 10/06 A3016 RMK AO2 T00950061
KMKJ 161055Z AUTO 31008G18KT 260V320 10SM OVC013 10/06 A3016 RMK AO2 T00960063
KMKJ 161035Z AUTO 30008G15KT 10SM BKN013 OVC027 10/07 A3015 RMK AO2 T00980065
KMKJ 161015Z AUTO 29009G16KT 10SM SCT013 OVC027 10/07 A3016 RMK AO2 T01000065
KMKJ 160955Z AUTO 29009G14KT 10SM SCT013 OVC025 10/07 A3015 RMK AO2 T01000069
KMKJ 160935Z AUTO 30008KT 10SM BKN013 OVC025 10/07 A3014 RMK AO2 T01010070
KMKJ 160915Z AUTO 30007G14KT 270V350 10SM SCT013 OVC023 10/07 A3014 RMK AO2 T01020071
KMKJ 160855Z AUTO 30009G19KT 270V340 10SM OVC021 11/08 A3013 RMK AO2 60002 T01060076
KMKJ 160835Z AUTO 29006G17KT 10SM SCT012 OVC023 11/08 A3013 RMK AO2 T01120080
KMKJ 160815Z AUTO 32007KT 270V360 10SM OVC012 13/10 A3012 RMK AO2 T01280100
KMKJ 160755Z AUTO 31007KT 10SM -RA OVC012 13/11 A3011 RMK AO2 T01340108
KMKJ 160735Z AUTO 32007KT 10SM OVC012 14/12 A3011 RMK AO2 T01400115
KMKJ 160715Z AUTO 26006KT 10SM DZ BKN014 BKN027 OVC035 14/13 A3011 RMK AO2 T01410125
KMKJ 160655Z AUTO 23004KT 7SM RA BKN014 OVC035 14/13 A3011 RMK AO2 P0002 T01410125